sensor_id;sensor_type;location;lat;lon;timestamp;P1;durP1;ratioP1;P2;durP2;ratioP2
56581;SDS011;42463;52.214;21.238;2023-12-07T09:30:44;58.50;;;28.60;;
56581;SDS011;42463;52.214;21.238;2023-12-07T09:32:55;55.20;;;27.00;;
56581;SDS011;42463;52.214;21.238;2023-12-07T09:35:03;58.50;;;26.60;;
56581;SDS011;42463;52.214;21.238;2023-12-07T09:37:11;53.40;;;25.30;;
56581;SDS011;42463;52.214;21.238;2023-12-07T09:39:19;51.40;;;25.00;;
56581;SDS011;42463;52.214;21.238;2023-12-07T09:41:26;50.30;;;24.60;;
56581;SDS011;42463;52.214;21.238;2023-12-07T09:43:33;49.10;;;24.70;;
56581;SDS011;42463;52.214;21.238;2023-12-07T09:45:40;55.10;;;25.30;;
56581;SDS011;42463;52.214;21.238;2023-12-07T09:47:48;53.00;;;24.90;;
56581;SDS011;42463;52.214;21.238;2023-12-07T09:49:56;47.10;;;22.80;;
56581;SDS011;42463;52.214;21.238;2023-12-07T09:52:03;51.90;;;24.10;;
56581;SDS011;42463;52.214;21.238;2023-12-07T09:54:12;52.10;;;24.60;;
56581;SDS011;42463;52.214;21.238;2023-12-07T09:56:18;49.10;;;24.00;;
56581;SDS011;42463;52.214;21.238;2023-12-07T09:58:26;50.10;;;24.20;;
56581;SDS011;42463;52.214;21.238;2023-12-07T10:00:32;49.20;;;23.50;;
56581;SDS011;42463;52.214;21.238;2023-12-07T10:02:39;47.00;;;23.70;;
56581;SDS011;42463;52.214;21.238;2023-12-07T10:04:47;55.60;;;26.30;;
56581;SDS011;42463;52.214;21.238;2023-12-07T10:07:07;57.20;;;28.20;;
56581;SDS011;42463;52.214;21.238;2023-12-07T10:09:13;54.70;;;27.30;;
56581;SDS011;42463;52.214;21.238;2023-12-07T10:11:22;49.80;;;25.10;;
56581;SDS011;42463;52.214;21.238;2023-12-07T10:13:30;56.20;;;27.50;;
56581;SDS011;42463;52.214;21.238;2023-12-07T10:15:38;64.10;;;29.80;;
56581;SDS011;42463;52.214;21.238;2023-12-07T10:17:57;51.40;;;23.30;;
56581;SDS011;42463;52.214;21.238;2023-12-07T10:20:07;51.50;;;24.80;;
56581;SDS011;42463;52.214;21.238;2023-12-07T10:22:15;49.10;;;23.10;;
56581;SDS011;42463;52.214;21.238;2023-12-07T10:24:22;47.80;;;22.20;;
56581;SDS011;42463;52.214;21.238;2023-12-07T10:26:29;50.60;;;24.70;;
56581;SDS011;42463;52.214;21.238;2023-12-07T10:28:36;55.90;;;24.90;;
56581;SDS011;42463;52.214;21.238;2023-12-07T10:30:46;52.30;;;24.10;;
56581;SDS011;42463;52.214;21.238;2023-12-07T10:32:53;51.40;;;24.30;;
56581;SDS011;42463;52.214;21.238;2023-12-07T10:34:59;50.70;;;22.00;;
56581;SDS011;42463;52.214;21.238;2023-12-07T10:37:08;50.30;;;22.60;;
56581;SDS011;42463;52.214;21.238;2023-12-07T10:39:18;55.70;;;22.20;;
56581;SDS011;42463;52.214;21.238;2023-12-07T10:41:27;43.20;;;19.70;;
56581;SDS011;42463;52.214;21.238;2023-12-07T10:43:36;46.50;;;21.20;;
56581;SDS011;42463;52.214;21.238;2023-12-07T10:45:47;47.70;;;20.90;;
56581;SDS011;42463;52.214;21.238;2023-12-07T10:47:56;43.60;;;19.00;;
56581;SDS011;42463;52.214;21.238;2023-12-07T10:50:11;43.70;;;19.70;;
56581;SDS011;42463;52.214;21.238;2023-12-07T10:52:26;39.70;;;19.00;;
56581;SDS011;42463;52.214;21.238;2023-12-07T10:54:37;43.30;;;19.10;;
56581;SDS011;42463;52.214;21.238;2023-12-07T10:56:50;44.70;;;19.90;;
56581;SDS011;42463;52.214;21.238;2023-12-07T10:58:58;40.80;;;19.20;;
56581;SDS011;42463;52.214;21.238;2023-12-07T11:01:05;41.00;;;18.40;;
56581;SDS011;42463;52.214;21.238;2023-12-07T11:03:15;40.30;;;18.10;;
56581;SDS011;42463;52.214;21.238;2023-12-07T11:05:22;43.00;;;19.90;;
56581;SDS011;42463;52.214;21.238;2023-12-07T11:07:30;45.00;;;19.60;;
56581;SDS011;42463;52.214;21.238;2023-12-07T11:09:47;41.00;;;18.90;;
56581;SDS011;42463;52.214;21.238;2023-12-07T11:12:04;39.00;;;18.40;;
56581;SDS011;42463;52.214;21.238;2023-12-07T11:14:14;39.30;;;18.40;;
56581;SDS011;42463;52.214;21.238;2023-12-07T11:16:29;37.10;;;19.10;;
56581;SDS011;42463;52.214;21.238;2023-12-07T11:18:36;42.70;;;19.70;;
56581;SDS011;42463;52.214;21.238;2023-12-07T11:20:43;41.70;;;20.70;;
56581;SDS011;42463;52.214;21.238;2023-12-07T11:22:51;41.30;;;19.10;;
56581;SDS011;42463;52.214;21.238;2023-12-07T11:25:00;47.70;;;20.30;;
56581;SDS011;42463;52.214;21.238;2023-12-07T11:27:08;44.30;;;20.00;;
56581;SDS011;42463;52.214;21.238;2023-12-07T11:29:14;43.00;;;18.50;;
56581;SDS011;42463;52.214;21.238;2023-12-07T11:31:24;38.10;;;18.30;;
56581;SDS011;42463;52.214;21.238;2023-12-07T11:33:31;41.80;;;19.30;;
56581;SDS011;42463;52.214;21.238;2023-12-07T11:38:11;38.00;;;18.70;;
56581;SDS011;42463;52.214;21.238;2023-12-07T11:40:21;42.10;;;19.80;;
56581;SDS011;42463;52.214;21.238;2023-12-07T11:42:28;43.50;;;19.10;;
56581;SDS011;42463;52.214;21.238;2023-12-07T11:44:36;42.90;;;19.40;;
56581;SDS011;42463;52.214;21.238;2023-12-07T11:46:43;43.80;;;20.10;;
56581;SDS011;42463;52.214;21.238;2023-12-07T11:48:53;41.10;;;19.10;;
56581;SDS011;42463;52.214;21.238;2023-12-07T11:51:01;37.40;;;17.60;;
56581;SDS011;42463;52.214;21.238;2023-12-07T11:53:08;41.70;;;19.00;;
56581;SDS011;42463;52.214;21.238;2023-12-07T11:55:16;39.50;;;18.90;;
56581;SDS011;42463;52.214;21.238;2023-12-07T11:57:24;41.40;;;18.20;;
56581;SDS011;42463;52.214;21.238;2023-12-07T11:59:30;42.00;;;18.20;;
56581;SDS011;42463;52.214;21.238;2023-12-07T12:01:38;38.40;;;18.20;;
56581;SDS011;42463;52.214;21.238;2023-12-07T12:03:50;42.90;;;20.10;;
56581;SDS011;42463;52.214;21.238;2023-12-07T12:05:58;40.50;;;18.90;;
56581;SDS011;42463;52.214;21.238;2023-12-07T12:08:04;43.00;;;19.40;;
56581;SDS011;42463;52.214;21.238;2023-12-07T12:10:11;41.60;;;19.50;;
56581;SDS011;42463;52.214;21.238;2023-12-07T12:12:18;39.80;;;18.30;;
56581;SDS011;42463;52.214;21.238;2023-12-07T12:14:24;39.10;;;19.00;;
56581;SDS011;42463;52.214;21.238;2023-12-07T12:16:31;39.50;;;18.60;;
56581;SDS011;42463;52.214;21.238;2023-12-07T12:18:37;46.70;;;19.20;;
56581;SDS011;42463;52.214;21.238;2023-12-07T12:20:44;37.50;;;17.60;;
56581;SDS011;42463;52.214;21.238;2023-12-07T12:22:50;42.30;;;18.90;;
56581;SDS011;42463;52.214;21.238;2023-12-07T12:24:57;42.30;;;19.30;;
56581;SDS011;42463;52.214;21.238;2023-12-07T12:27:04;37.70;;;18.90;;
56581;SDS011;42463;52.214;21.238;2023-12-07T12:29:10;38.10;;;17.70;;
56581;SDS011;42463;52.214;21.238;2023-12-07T12:31:18;38.70;;;17.60;;
56581;SDS011;42463;52.214;21.238;2023-12-07T12:33:26;44.50;;;19.30;;
56581;SDS011;42463;52.214;21.238;2023-12-07T12:35:32;39.30;;;19.90;;
56581;SDS011;42463;52.214;21.238;2023-12-07T12:37:39;45.40;;;20.30;;
56581;SDS011;42463;52.214;21.238;2023-12-07T12:39:46;44.30;;;20.10;;
56581;SDS011;42463;52.214;21.238;2023-12-07T12:41:55;42.60;;;19.80;;
56581;SDS011;42463;52.214;21.238;2023-12-07T12:44:02;42.60;;;20.00;;
56581;SDS011;42463;52.214;21.238;2023-12-07T12:46:09;35.50;;;16.10;;
56581;SDS011;42463;52.214;21.238;2023-12-07T12:48:15;41.40;;;20.20;;
56581;SDS011;42463;52.214;21.238;2023-12-07T12:50:35;45.80;;;19.90;;
56581;SDS011;42463;52.214;21.238;2023-12-07T12:52:42;43.10;;;19.60;;
56581;SDS011;42463;52.214;21.238;2023-12-07T12:54:49;43.30;;;19.30;;
56581;SDS011;42463;52.214;21.238;2023-12-07T12:56:55;44.60;;;19.40;;
56581;SDS011;42463;52.214;21.238;2023-12-07T12:59:02;39.30;;;18.60;;
56581;SDS011;42463;52.214;21.238;2023-12-07T13:01:08;41.70;;;19.00;;
56581;SDS011;42463;52.214;21.238;2023-12-07T13:03:15;41.20;;;19.20;;
56581;SDS011;42463;52.214;21.238;2023-12-07T13:05:22;43.70;;;20.00;;
56581;SDS011;42463;52.214;21.238;2023-12-07T13:07:29;41.90;;;19.00;;
56581;SDS011;42463;52.214;21.238;2023-12-07T13:09:35;40.10;;;19.30;;
56581;SDS011;42463;52.214;21.238;2023-12-07T13:11:41;38.70;;;18.80;;
56581;SDS011;42463;52.214;21.238;2023-12-07T13:13:47;44.10;;;19.40;;
56581;SDS011;42463;52.214;21.238;2023-12-07T13:15:54;45.80;;;20.90;;
56581;SDS011;42463;52.214;21.238;2023-12-07T13:18:01;45.50;;;21.40;;
56581;SDS011;42463;52.214;21.238;2023-12-07T13:20:09;47.20;;;20.90;;
56581;SDS011;42463;52.214;21.238;2023-12-07T13:22:17;43.90;;;19.80;;
56581;SDS011;42463;52.214;21.238;2023-12-07T13:24:23;35.00;;;15.50;;
56581;SDS011;42463;52.214;21.238;2023-12-07T13:26:30;49.10;;;21.40;;
56581;SDS011;42463;52.214;21.238;2023-12-07T13:28:36;43.20;;;20.50;;
56581;SDS011;42463;52.214;21.238;2023-12-07T13:30:42;47.00;;;21.50;;
56581;SDS011;42463;52.214;21.238;2023-12-07T13:32:48;54.40;;;24.10;;
56581;SDS011;42463;52.214;21.238;2023-12-07T13:34:54;51.40;;;22.50;;
56581;SDS011;42463;52.214;21.238;2023-12-07T13:37:02;47.60;;;22.20;;
56581;SDS011;42463;52.214;21.238;2023-12-07T13:39:08;49.40;;;22.40;;
56581;SDS011;42463;52.214;21.238;2023-12-07T13:41:18;48.00;;;23.00;;
56581;SDS011;42463;52.214;21.238;2023-12-07T13:43:25;47.50;;;23.90;;
56581;SDS011;42463;52.214;21.238;2023-12-07T13:45:33;51.30;;;23.90;;
56581;SDS011;42463;52.214;21.238;2023-12-07T13:47:39;50.20;;;24.20;;
56581;SDS011;42463;52.214;21.238;2023-12-07T13:49:46;51.20;;;24.30;;
56581;SDS011;42463;52.214;21.238;2023-12-07T13:51:52;55.40;;;24.90;;
56581;SDS011;42463;52.214;21.238;2023-12-07T13:53:58;51.80;;;22.50;;
56581;SDS011;42463;52.214;21.238;2023-12-07T13:56:05;57.90;;;26.40;;
56581;SDS011;42463;52.214;21.238;2023-12-07T13:58:14;53.30;;;23.70;;
56581;SDS011;42463;52.214;21.238;2023-12-07T14:00:20;54.50;;;23.90;;
56581;SDS011;42463;52.214;21.238;2023-12-07T14:02:27;50.90;;;23.30;;
56581;SDS011;42463;52.214;21.238;2023-12-07T14:04:33;54.90;;;25.30;;
56581;SDS011;42463;52.214;21.238;2023-12-07T14:06:40;53.40;;;24.80;;
56581;SDS011;42463;52.214;21.238;2023-12-07T14:08:47;47.30;;;22.70;;
56581;SDS011;42463;52.214;21.238;2023-12-07T14:10:54;56.80;;;23.90;;
56581;SDS011;42463;52.214;21.238;2023-12-07T14:13:02;50.60;;;23.70;;
56581;SDS011;42463;52.214;21.238;2023-12-07T14:15:09;55.90;;;25.60;;
56581;SDS011;42463;52.214;21.238;2023-12-07T14:17:15;55.00;;;24.00;;
56581;SDS011;42463;52.214;21.238;2023-12-07T14:19:23;54.60;;;25.30;;
56581;SDS011;42463;52.214;21.238;2023-12-07T14:21:30;55.80;;;25.60;;
56581;SDS011;42463;52.214;21.238;2023-12-07T14:23:40;55.60;;;24.60;;
56581;SDS011;42463;52.214;21.238;2023-12-07T14:25:46;54.40;;;25.90;;
56581;SDS011;42463;52.214;21.238;2023-12-07T14:27:54;56.50;;;25.30;;
56581;SDS011;42463;52.214;21.238;2023-12-07T14:30:01;54.20;;;25.00;;
56581;SDS011;42463;52.214;21.238;2023-12-07T14:32:08;53.30;;;24.30;;
56581;SDS011;42463;52.214;21.238;2023-12-07T14:34:14;53.40;;;23.90;;
56581;SDS011;42463;52.214;21.238;2023-12-07T14:36:22;57.50;;;26.00;;
56581;SDS011;42463;52.214;21.238;2023-12-07T14:38:28;53.70;;;24.20;;
56581;SDS011;42463;52.214;21.238;2023-12-07T14:40:35;56.20;;;24.60;;
56581;SDS011;42463;52.214;21.238;2023-12-07T14:42:42;51.30;;;23.70;;
56581;SDS011;42463;52.214;21.238;2023-12-07T14:44:49;55.80;;;23.90;;
56581;SDS011;42463;52.214;21.238;2023-12-07T14:46:56;48.70;;;24.00;;
56581;SDS011;42463;52.214;21.238;2023-12-07T14:49:03;53.90;;;24.20;;
56581;SDS011;42463;52.214;21.238;2023-12-07T14:51:10;50.80;;;22.60;;
56581;SDS011;42463;52.214;21.238;2023-12-07T14:53:22;54.40;;;23.90;;
56581;SDS011;42463;52.214;21.238;2023-12-07T14:55:28;48.70;;;22.60;;
56581;SDS011;42463;52.214;21.238;2023-12-07T14:57:35;56.10;;;23.60;;
56581;SDS011;42463;52.214;21.238;2023-12-07T14:59:41;55.90;;;23.10;;
56581;SDS011;42463;52.214;21.238;2023-12-07T15:01:48;55.90;;;23.20;;
56581;SDS011;42463;52.214;21.238;2023-12-07T15:03:55;48.50;;;22.90;;
56581;SDS011;42463;52.214;21.238;2023-12-07T15:06:02;54.40;;;23.20;;
56581;SDS011;42463;52.214;21.238;2023-12-07T15:08:09;49.10;;;21.60;;
56581;SDS011;42463;52.214;21.238;2023-12-07T15:10:15;52.20;;;24.80;;
56581;SDS011;42463;52.214;21.238;2023-12-07T15:12:21;52.20;;;21.80;;
56581;SDS011;42463;52.214;21.238;2023-12-07T15:14:29;54.40;;;23.30;;
56581;SDS011;42463;52.214;21.238;2023-12-07T15:16:35;52.00;;;23.00;;
56581;SDS011;42463;52.214;21.238;2023-12-07T15:18:42;47.40;;;20.70;;
56581;SDS011;42463;52.214;21.238;2023-12-07T15:20:49;55.30;;;22.80;;
56581;SDS011;42463;52.214;21.238;2023-12-07T15:22:55;51.80;;;23.80;;
56581;SDS011;42463;52.214;21.238;2023-12-07T15:25:02;52.80;;;23.10;;
56581;SDS011;42463;52.214;21.238;2023-12-07T15:27:09;52.10;;;22.80;;
56581;SDS011;42463;52.214;21.238;2023-12-07T15:29:16;52.50;;;23.30;;
56581;SDS011;42463;52.214;21.238;2023-12-07T15:31:26;52.50;;;23.10;;
56581;SDS011;42463;52.214;21.238;2023-12-07T15:33:33;50.60;;;22.90;;
56581;SDS011;42463;52.214;21.238;2023-12-07T15:35:40;54.70;;;23.70;;
56581;SDS011;42463;52.214;21.238;2023-12-07T15:37:47;50.30;;;22.40;;
56581;SDS011;42463;52.214;21.238;2023-12-07T15:39:53;40.80;;;19.40;;
56581;SDS011;42463;52.214;21.238;2023-12-07T15:41:59;47.60;;;21.30;;
56581;SDS011;42463;52.214;21.238;2023-12-07T15:44:06;42.80;;;19.40;;
56581;SDS011;42463;52.214;21.238;2023-12-07T15:46:12;44.20;;;20.10;;
56581;SDS011;42463;52.214;21.238;2023-12-07T15:48:19;50.10;;;22.20;;
56581;SDS011;42463;52.214;21.238;2023-12-07T15:50:26;47.40;;;22.00;;
56581;SDS011;42463;52.214;21.238;2023-12-07T15:52:33;51.40;;;22.50;;
56581;SDS011;42463;52.214;21.238;2023-12-07T15:54:39;50.70;;;23.00;;
56581;SDS011;42463;52.214;21.238;2023-12-07T15:56:47;47.70;;;21.00;;
56581;SDS011;42463;52.214;21.238;2023-12-07T15:58:53;45.00;;;21.30;;
56581;SDS011;42463;52.214;21.238;2023-12-07T16:00:59;48.90;;;20.40;;
56581;SDS011;42463;52.214;21.238;2023-12-07T16:03:06;43.00;;;21.10;;
56581;SDS011;42463;52.214;21.238;2023-12-07T16:05:12;43.80;;;20.50;;
56581;SDS011;42463;52.214;21.238;2023-12-07T16:07:18;51.80;;;21.80;;
56581;SDS011;42463;52.214;21.238;2023-12-07T16:09:25;36.00;;;15.70;;
56581;SDS011;42463;52.214;21.238;2023-12-07T16:11:31;45.40;;;20.60;;
56581;SDS011;42463;52.214;21.238;2023-12-07T16:13:37;48.90;;;21.30;;
56581;SDS011;42463;52.214;21.238;2023-12-07T16:15:44;44.40;;;21.00;;
56581;SDS011;42463;52.214;21.238;2023-12-07T16:17:50;46.90;;;22.30;;
56581;SDS011;42463;52.214;21.238;2023-12-07T16:19:56;44.70;;;21.40;;
56581;SDS011;42463;52.214;21.238;2023-12-07T16:22:03;45.50;;;21.30;;
56581;SDS011;42463;52.214;21.238;2023-12-07T16:24:11;46.70;;;21.10;;
56581;SDS011;42463;52.214;21.238;2023-12-07T16:26:17;44.50;;;21.40;;
56581;SDS011;42463;52.214;21.238;2023-12-07T16:28:24;50.90;;;22.80;;
56581;SDS011;42463;52.214;21.238;2023-12-07T16:30:31;39.60;;;20.60;;
56581;SDS011;42463;52.214;21.238;2023-12-07T16:32:37;48.00;;;21.80;;
56581;SDS011;42463;52.214;21.238;2023-12-07T16:34:44;47.00;;;22.00;;
56581;SDS011;42463;52.214;21.238;2023-12-07T16:36:51;50.90;;;22.70;;
56581;SDS011;42463;52.214;21.238;2023-12-07T16:38:57;43.10;;;21.30;;
56581;SDS011;42463;52.214;21.238;2023-12-07T16:41:05;49.70;;;22.50;;
56581;SDS011;42463;52.214;21.238;2023-12-07T16:43:12;51.20;;;23.70;;
56581;SDS011;42463;52.214;21.238;2023-12-07T16:45:19;49.10;;;22.20;;
56581;SDS011;42463;52.214;21.238;2023-12-07T16:47:25;51.50;;;23.10;;
56581;SDS011;42463;52.214;21.238;2023-12-07T16:49:31;52.80;;;23.30;;
56581;SDS011;42463;52.214;21.238;2023-12-07T16:51:37;51.00;;;22.90;;
56581;SDS011;42463;52.214;21.238;2023-12-07T16:53:44;49.50;;;20.70;;
56581;SDS011;42463;52.214;21.238;2023-12-07T16:55:50;48.90;;;22.90;;
56581;SDS011;42463;52.214;21.238;2023-12-07T16:57:58;45.00;;;22.30;;
56581;SDS011;42463;52.214;21.238;2023-12-07T17:00:05;44.20;;;21.40;;
56581;SDS011;42463;52.214;21.238;2023-12-07T17:02:13;49.00;;;24.10;;
56581;SDS011;42463;52.214;21.238;2023-12-07T17:04:21;50.90;;;23.10;;
56581;SDS011;42463;52.214;21.238;2023-12-07T17:06:28;54.90;;;21.90;;
56581;SDS011;42463;52.214;21.238;2023-12-07T17:08:34;47.90;;;21.40;;
56581;SDS011;42463;52.214;21.238;2023-12-07T17:10:40;46.90;;;21.20;;
56581;SDS011;42463;52.214;21.238;2023-12-07T17:12:47;43.10;;;20.50;;
56581;SDS011;42463;52.214;21.238;2023-12-07T17:14:53;49.90;;;22.20;;
56581;SDS011;42463;52.214;21.238;2023-12-07T17:16:59;52.20;;;24.10;;
56581;SDS011;42463;52.214;21.238;2023-12-07T17:19:06;49.80;;;22.50;;
56581;SDS011;42463;52.214;21.238;2023-12-07T17:21:13;48.80;;;22.70;;
56581;SDS011;42463;52.214;21.238;2023-12-07T17:23:19;48.40;;;22.90;;
56581;SDS011;42463;52.214;21.238;2023-12-07T17:25:25;44.70;;;21.10;;
56581;SDS011;42463;52.214;21.238;2023-12-07T17:27:31;46.10;;;21.20;;
56581;SDS011;42463;52.214;21.238;2023-12-07T17:29:37;51.20;;;21.30;;
56581;SDS011;42463;52.214;21.238;2023-12-07T17:31:43;46.90;;;21.80;;
56581;SDS011;42463;52.214;21.238;2023-12-07T17:33:50;50.80;;;22.50;;
56581;SDS011;42463;52.214;21.238;2023-12-07T17:35:56;45.50;;;22.10;;
56581;SDS011;42463;52.214;21.238;2023-12-07T17:38:02;50.10;;;22.70;;
56581;SDS011;42463;52.214;21.238;2023-12-07T17:40:09;49.10;;;21.30;;
56581;SDS011;42463;52.214;21.238;2023-12-07T17:42:17;48.30;;;21.30;;
56581;SDS011;42463;52.214;21.238;2023-12-07T17:44:23;51.70;;;22.80;;
56581;SDS011;42463;52.214;21.238;2023-12-07T17:46:30;47.20;;;21.70;;
56581;SDS011;42463;52.214;21.238;2023-12-07T17:48:36;45.90;;;20.90;;
56581;SDS011;42463;52.214;21.238;2023-12-07T17:50:43;48.90;;;22.90;;
56581;SDS011;42463;52.214;21.238;2023-12-07T17:52:49;53.60;;;22.90;;
56581;SDS011;42463;52.214;21.238;2023-12-07T17:54:55;51.20;;;22.60;;
56581;SDS011;42463;52.214;21.238;2023-12-07T17:57:02;47.70;;;21.70;;
56581;SDS011;42463;52.214;21.238;2023-12-07T17:59:08;51.40;;;22.70;;
56581;SDS011;42463;52.214;21.238;2023-12-07T18:01:19;46.40;;;21.70;;
56581;SDS011;42463;52.214;21.238;2023-12-07T18:03:26;48.20;;;21.90;;
56581;SDS011;42463;52.214;21.238;2023-12-07T18:05:32;51.50;;;24.50;;
56581;SDS011;42463;52.214;21.238;2023-12-07T18:07:38;53.30;;;23.20;;
56581;SDS011;42463;52.214;21.238;2023-12-07T18:09:44;55.50;;;25.00;;
56581;SDS011;42463;52.214;21.238;2023-12-07T18:11:51;54.80;;;23.60;;
56581;SDS011;42463;52.214;21.238;2023-12-07T18:13:58;50.50;;;23.90;;
56581;SDS011;42463;52.214;21.238;2023-12-07T18:16:04;54.10;;;23.10;;
56581;SDS011;42463;52.214;21.238;2023-12-07T18:18:11;45.80;;;23.10;;
56581;SDS011;42463;52.214;21.238;2023-12-07T18:20:17;48.30;;;21.40;;
56581;SDS011;42463;52.214;21.238;2023-12-07T18:22:24;50.30;;;21.80;;
56581;SDS011;42463;52.214;21.238;2023-12-07T18:24:30;52.70;;;21.80;;
56581;SDS011;42463;52.214;21.238;2023-12-07T18:26:36;47.60;;;22.10;;
56581;SDS011;42463;52.214;21.238;2023-12-07T18:28:44;44.20;;;19.90;;
56581;SDS011;42463;52.214;21.238;2023-12-07T18:30:50;42.00;;;18.70;;
56581;SDS011;42463;52.214;21.238;2023-12-07T18:32:56;50.90;;;22.20;;
56581;SDS011;42463;52.214;21.238;2023-12-07T18:35:03;46.00;;;21.50;;
56581;SDS011;42463;52.214;21.238;2023-12-07T18:37:11;50.50;;;21.80;;
56581;SDS011;42463;52.214;21.238;2023-12-07T18:39:17;49.80;;;23.50;;
56581;SDS011;42463;52.214;21.238;2023-12-07T18:41:24;45.10;;;20.40;;
56581;SDS011;42463;52.214;21.238;2023-12-07T18:43:30;45.60;;;19.90;;
56581;SDS011;42463;52.214;21.238;2023-12-07T18:45:37;42.20;;;18.00;;
56581;SDS011;42463;52.214;21.238;2023-12-07T18:47:44;42.70;;;21.40;;
56581;SDS011;42463;52.214;21.238;2023-12-07T18:49:50;39.70;;;18.70;;
56581;SDS011;42463;52.214;21.238;2023-12-07T18:51:56;49.80;;;21.80;;
56581;SDS011;42463;52.214;21.238;2023-12-07T18:54:02;48.40;;;20.90;;
56581;SDS011;42463;52.214;21.238;2023-12-07T18:56:09;43.70;;;19.90;;
56581;SDS011;42463;52.214;21.238;2023-12-07T18:58:15;44.80;;;20.90;;
56581;SDS011;42463;52.214;21.238;2023-12-07T19:00:22;49.10;;;21.30;;
56581;SDS011;42463;52.214;21.238;2023-12-07T19:02:29;42.50;;;20.80;;
56581;SDS011;42463;52.214;21.238;2023-12-07T19:04:35;44.30;;;19.30;;
56581;SDS011;42463;52.214;21.238;2023-12-07T19:06:41;44.30;;;19.40;;
56581;SDS011;42463;52.214;21.238;2023-12-07T19:08:47;42.00;;;19.10;;
56581;SDS011;42463;52.214;21.238;2023-12-07T19:10:53;36.80;;;18.30;;
56581;SDS011;42463;52.214;21.238;2023-12-07T19:12:59;37.90;;;18.60;;
56581;SDS011;42463;52.214;21.238;2023-12-07T19:15:06;40.90;;;19.70;;
56581;SDS011;42463;52.214;21.238;2023-12-07T19:17:13;43.50;;;18.30;;
56581;SDS011;42463;52.214;21.238;2023-12-07T19:19:21;44.50;;;20.60;;
56581;SDS011;42463;52.214;21.238;2023-12-07T19:21:27;42.10;;;19.50;;
56581;SDS011;42463;52.214;21.238;2023-12-07T19:23:33;42.10;;;19.50;;
56581;SDS011;42463;52.214;21.238;2023-12-07T19:25:39;41.80;;;19.40;;
56581;SDS011;42463;52.214;21.238;2023-12-07T19:27:46;43.70;;;20.10;;
56581;SDS011;42463;52.214;21.238;2023-12-07T19:29:52;43.30;;;19.30;;
56581;SDS011;42463;52.214;21.238;2023-12-07T19:31:59;39.20;;;19.70;;
56581;SDS011;42463;52.214;21.238;2023-12-07T19:34:05;45.20;;;20.60;;
56581;SDS011;42463;52.214;21.238;2023-12-07T19:36:12;46.70;;;21.40;;
56581;SDS011;42463;52.214;21.238;2023-12-07T19:38:19;44.50;;;21.10;;
56581;SDS011;42463;52.214;21.238;2023-12-07T19:40:25;45.50;;;19.30;;
56581;SDS011;42463;52.214;21.238;2023-12-07T19:42:32;38.20;;;19.20;;
56581;SDS011;42463;52.214;21.238;2023-12-07T19:44:38;41.10;;;18.60;;
56581;SDS011;42463;52.214;21.238;2023-12-07T19:46:44;45.10;;;19.50;;
56581;SDS011;42463;52.214;21.238;2023-12-07T19:48:50;36.80;;;18.20;;
56581;SDS011;42463;52.214;21.238;2023-12-07T19:50:57;40.70;;;19.00;;
56581;SDS011;42463;52.214;21.238;2023-12-07T19:53:03;41.50;;;18.50;;
56581;SDS011;42463;52.214;21.238;2023-12-07T19:55:11;42.60;;;19.60;;
56581;SDS011;42463;52.214;21.238;2023-12-07T19:57:18;39.60;;;18.80;;
56581;SDS011;42463;52.214;21.238;2023-12-07T19:59:24;40.10;;;18.80;;
56581;SDS011;42463;52.214;21.238;2023-12-07T20:01:31;45.70;;;19.20;;
56581;SDS011;42463;52.214;21.238;2023-12-07T20:03:37;40.90;;;18.80;;
56581;SDS011;42463;52.214;21.238;2023-12-07T20:05:43;37.50;;;17.20;;
56581;SDS011;42463;52.214;21.238;2023-12-07T20:07:50;34.20;;;17.30;;
56581;SDS011;42463;52.214;21.238;2023-12-07T20:09:56;40.30;;;18.90;;
56581;SDS011;42463;52.214;21.238;2023-12-07T20:12:03;36.70;;;18.00;;
56581;SDS011;42463;52.214;21.238;2023-12-07T20:14:10;33.80;;;17.30;;
56581;SDS011;42463;52.214;21.238;2023-12-07T20:16:17;37.90;;;18.20;;
56581;SDS011;42463;52.214;21.238;2023-12-07T20:18:24;38.10;;;18.00;;
56581;SDS011;42463;52.214;21.238;2023-12-07T20:20:33;41.30;;;18.60;;
56581;SDS011;42463;52.214;21.238;2023-12-07T20:22:39;42.80;;;18.90;;
56581;SDS011;42463;52.214;21.238;2023-12-07T20:24:45;40.90;;;18.60;;
56581;SDS011;42463;52.214;21.238;2023-12-07T20:26:52;40.70;;;18.20;;
56581;SDS011;42463;52.214;21.238;2023-12-07T20:28:58;38.10;;;17.10;;
56581;SDS011;42463;52.214;21.238;2023-12-07T20:31:04;40.20;;;17.70;;
56581;SDS011;42463;52.214;21.238;2023-12-07T20:33:11;38.60;;;17.00;;
56581;SDS011;42463;52.214;21.238;2023-12-07T20:35:18;36.80;;;17.40;;
56581;SDS011;42463;52.214;21.238;2023-12-07T20:37:24;36.70;;;17.00;;
56581;SDS011;42463;52.214;21.238;2023-12-07T20:39:30;34.80;;;16.50;;
56581;SDS011;42463;52.214;21.238;2023-12-07T20:41:37;39.00;;;17.00;;
56581;SDS011;42463;52.214;21.238;2023-12-07T20:43:45;35.40;;;16.20;;
56581;SDS011;42463;52.214;21.238;2023-12-07T20:45:52;37.70;;;17.70;;
56581;SDS011;42463;52.214;21.238;2023-12-07T20:48:01;40.20;;;18.50;;
56581;SDS011;42463;52.214;21.238;2023-12-07T20:50:08;38.60;;;18.90;;
56581;SDS011;42463;52.214;21.238;2023-12-07T20:52:14;39.80;;;17.90;;
56581;SDS011;42463;52.214;21.238;2023-12-07T20:54:22;42.50;;;18.20;;
56581;SDS011;42463;52.214;21.238;2023-12-07T20:56:29;42.30;;;18.30;;
56581;SDS011;42463;52.214;21.238;2023-12-07T20:58:38;43.50;;;19.20;;
56581;SDS011;42463;52.214;21.238;2023-12-07T21:00:44;47.30;;;20.80;;
56581;SDS011;42463;52.214;21.238;2023-12-07T21:02:50;42.10;;;17.90;;
56581;SDS011;42463;52.214;21.238;2023-12-07T21:04:57;40.80;;;17.80;;
56581;SDS011;42463;52.214;21.238;2023-12-07T21:07:04;40.00;;;18.20;;
56581;SDS011;42463;52.214;21.238;2023-12-07T21:09:10;37.20;;;16.80;;
56581;SDS011;42463;52.214;21.238;2023-12-07T21:11:16;41.30;;;17.00;;
56581;SDS011;42463;52.214;21.238;2023-12-07T21:13:23;36.90;;;17.00;;
56581;SDS011;42463;52.214;21.238;2023-12-07T21:15:29;39.30;;;17.30;;
56581;SDS011;42463;52.214;21.238;2023-12-07T21:17:37;39.00;;;18.10;;
56581;SDS011;42463;52.214;21.238;2023-12-07T21:19:44;35.30;;;17.20;;
56581;SDS011;42463;52.214;21.238;2023-12-07T21:21:50;40.80;;;18.10;;
56581;SDS011;42463;52.214;21.238;2023-12-07T21:23:56;41.80;;;18.00;;
56581;SDS011;42463;52.214;21.238;2023-12-07T21:26:03;45.30;;;18.20;;
56581;SDS011;42463;52.214;21.238;2023-12-07T21:28:14;37.90;;;17.30;;
56581;SDS011;42463;52.214;21.238;2023-12-07T21:30:20;30.80;;;14.40;;
56581;SDS011;42463;52.214;21.238;2023-12-07T21:32:27;42.60;;;16.70;;
56581;SDS011;42463;52.214;21.238;2023-12-07T21:34:33;39.70;;;18.20;;
56581;SDS011;42463;52.214;21.238;2023-12-07T21:36:40;39.90;;;18.30;;
56581;SDS011;42463;52.214;21.238;2023-12-07T21:38:47;36.50;;;17.80;;
56581;SDS011;42463;52.214;21.238;2023-12-07T21:40:53;41.30;;;19.10;;
56581;SDS011;42463;52.214;21.238;2023-12-07T21:43:01;41.20;;;17.90;;
56581;SDS011;42463;52.214;21.238;2023-12-07T21:45:09;39.90;;;16.80;;